FDX1 EGSS-KMEM
Flight info
| Callsign | FDX1 |
|---|---|
| Flight time | N/A |
| Altitude | 30000 |
| Route | NUGBO M183 SILVA P86 DIDZA N14 OKSAW DCT BIBPE DCT FELCA DCT NICXI DCT BAKUR DCT DOGAL/M084F320 DCT 54N020W 53N030W 5130N04000W 50N050W DCT ELSIR/N0484F340 N414A ANATI/N0489F360 DCT POLTY Q804 DERLO Q907 SVM DCT FWA DCT VHP DCT PXV BLUZZ5 |
| Aircraft | MD11/H-SDE1E2E3FGHIJ2J3J4J5M1RWXY/LB1D1 |
Departure
| Time | 2026-05-06 23:55 |
|---|---|
| Airport | London Stansted Airport (EGSS) |
Arrival
| Time | N/A |
|---|---|
| Airport | Memphis International Airport (KMEM) |
| Time | Latitude | Longitude | Altitude | Speed | Heading |
|---|---|---|---|---|---|
| 2026-05-06 23:32 | 51.88557 | 0.24555 | 363 ft | 0 kts | 42° |
| 2026-05-06 23:44 | 51.88543 | 0.24534 | 364 ft | 4 kts | 40° |
| 2026-05-06 23:44 | 51.88522 | 0.24507 | 363 ft | 4 kts | 33° |
| 2026-05-06 23:45 | 51.88499 | 0.24487 | 363 ft | 4 kts | 14° |
| 2026-05-06 23:45 | 51.88479 | 0.24483 | 363 ft | 4 kts | 332° |
| 2026-05-06 23:45 | 51.88472 | 0.24489 | 363 ft | 0 kts | 312° |
| 2026-05-06 23:49 | 51.88472 | 0.24488 | 363 ft | 0 kts | 312° |
| 2026-05-06 23:49 | 51.88484 | 0.24466 | 363 ft | 6 kts | 311° |
| 2026-05-06 23:49 | 51.88528 | 0.24385 | 362 ft | 13 kts | 307° |
| 2026-05-06 23:49 | 51.88516 | 0.24288 | 360 ft | 10 kts | 231° |
| 2026-05-06 23:50 | 51.88452 | 0.24190 | 360 ft | 14 kts | 223° |
| 2026-05-06 23:50 | 51.88291 | 0.23951 | 361 ft | 17 kts | 223° |
| 2026-05-06 23:50 | 51.88208 | 0.23822 | 357 ft | 16 kts | 223° |
| 2026-05-06 23:51 | 51.88123 | 0.23694 | 358 ft | 17 kts | 223° |
| 2026-05-06 23:51 | 51.88027 | 0.23553 | 357 ft | 19 kts | 223° |
| 2026-05-06 23:51 | 51.87936 | 0.23417 | 357 ft | 17 kts | 223° |
| 2026-05-06 23:51 | 51.87859 | 0.23301 | 357 ft | 15 kts | 223° |
| 2026-05-06 23:52 | 51.87779 | 0.23181 | 357 ft | 16 kts | 223° |
| 2026-05-06 23:52 | 51.87732 | 0.23067 | 354 ft | 9 kts | 266° |
| 2026-05-06 23:52 | 51.87760 | 0.22980 | 358 ft | 10 kts | 310° |
| 2026-05-06 23:52 | 51.87761 | 0.22867 | 357 ft | 13 kts | 237° |
| 2026-05-06 23:53 | 51.87684 | 0.22740 | 353 ft | 16 kts | 223° |
| 2026-05-06 23:53 | 51.87605 | 0.22621 | 353 ft | 15 kts | 223° |
| 2026-05-06 23:53 | 51.87527 | 0.22498 | 336 ft | 15 kts | 234° |
| 2026-05-06 23:53 | 51.87544 | 0.22379 | 333 ft | 12 kts | 313° |
| 2026-05-06 23:54 | 51.87622 | 0.22275 | 328 ft | 15 kts | 339° |
| 2026-05-06 23:54 | 51.87708 | 0.22293 | 329 ft | 13 kts | 33° |
| 2026-05-06 23:54 | 51.87869 | 0.22531 | 335 ft | 64 kts | 43° |
| 2026-05-06 23:54 | 51.88381 | 0.23301 | 358 ft | 133 kts | 43° |
| 2026-05-06 23:55 | 51.89191 | 0.24518 | 390 ft | 178 kts | 42° |
| 2026-05-06 23:55 | 51.90099 | 0.25846 | 879 ft | 183 kts | 42° |
| 2026-05-06 23:55 | 51.91058 | 0.27241 | 1540 ft | 185 kts | 45° |
| 2026-05-06 23:55 | 51.92048 | 0.28698 | 1875 ft | 203 kts | 45° |
| 2026-05-06 23:56 | 51.93151 | 0.30336 | 2123 ft | 227 kts | 45° |
| 2026-05-06 23:56 | 51.94366 | 0.32166 | 2342 ft | 247 kts | 44° |
| 2026-05-06 23:56 | 51.95696 | 0.34103 | 2550 ft | 265 kts | 38° |
| 2026-05-06 23:56 | 51.97437 | 0.35298 | 2715 ft | 284 kts | 9° |
| 2026-05-06 23:57 | 51.99401 | 0.35057 | 3288 ft | 292 kts | 340° |
| 2026-05-06 23:57 | 52.01092 | 0.33247 | 3976 ft | 298 kts | 313° |
| 2026-05-06 23:57 | 52.02081 | 0.30379 | 4223 ft | 293 kts | 282° |
| 2026-05-06 23:57 | 52.02045 | 0.27088 | 4516 ft | 300 kts | 251° |
| 2026-05-06 23:58 | 52.00969 | 0.24278 | 5214 ft | 295 kts | 221° |
| 2026-05-06 23:58 | 51.99240 | 0.22537 | 5917 ft | 295 kts | 210° |
| 2026-05-06 23:58 | 51.97751 | 0.20266 | 6676 ft | 297 kts | 236° |
| 2026-05-06 23:58 | 51.96971 | 0.17143 | 7344 ft | 303 kts | 261° |
| 2026-05-06 23:59 | 51.96979 | 0.13734 | 8004 ft | 306 kts | 278° |
| 2026-05-06 23:59 | 51.97487 | 0.10378 | 8734 ft | 307 kts | 289° |
| 2026-05-06 23:59 | 51.98252 | 0.07117 | 9352 ft | 311 kts | 286° |
| 2026-05-06 23:59 | 51.98477 | 0.03639 | 10033 ft | 314 kts | 268° |
| 2026-05-07 00:00 | 51.98222 | 0.00004 | 10222 ft | 335 kts | 261° |
| 2026-05-07 00:00 | 51.97771 | -0.03805 | 10449 ft | 351 kts | 259° |
| 2026-05-07 00:00 | 51.97252 | -0.07696 | 11090 ft | 354 kts | 258° |
| 2026-05-07 00:00 | 51.96901 | -0.10290 | 11510 ft | 356 kts | 258° |
| 2026-05-07 00:01 | 51.96196 | -0.15520 | 12343 ft | 360 kts | 259° |
| 2026-05-07 00:01 | 51.95665 | -0.19509 | 12956 ft | 364 kts | 259° |
| 2026-05-07 00:01 | 51.95134 | -0.23541 | 13560 ft | 367 kts | 259° |
| 2026-05-07 00:01 | 51.94601 | -0.27602 | 14111 ft | 370 kts | 259° |
| 2026-05-07 00:02 | 51.94065 | -0.31688 | 14629 ft | 372 kts | 259° |
| 2026-05-07 00:02 | 51.93706 | -0.34422 | 14970 ft | 374 kts | 259° |
| 2026-05-07 00:02 | 51.93164 | -0.38554 | 15483 ft | 376 kts | 259° |
| 2026-05-07 00:02 | 51.92618 | -0.42701 | 15959 ft | 379 kts | 258° |
| 2026-05-07 00:03 | 51.92063 | -0.46905 | 16456 ft | 381 kts | 258° |
| 2026-05-07 00:03 | 51.91506 | -0.51108 | 16935 ft | 383 kts | 258° |
| 2026-05-07 00:03 | 51.90944 | -0.55347 | 17405 ft | 386 kts | 258° |
| 2026-05-07 00:03 | 51.90376 | -0.59609 | 17871 ft | 388 kts | 258° |
| 2026-05-07 00:04 | 51.89804 | -0.63892 | 18342 ft | 391 kts | 258° |
| 2026-05-07 00:04 | 51.89228 | -0.68192 | 18714 ft | 393 kts | 258° |
| 2026-05-07 00:04 | 51.88649 | -0.72505 | 19100 ft | 395 kts | 258° |
| 2026-05-07 00:04 | 51.88062 | -0.76858 | 19471 ft | 397 kts | 258° |
| 2026-05-07 00:05 | 51.87471 | -0.81232 | 19837 ft | 399 kts | 258° |
| 2026-05-07 00:05 | 51.86875 | -0.85626 | 20204 ft | 401 kts | 258° |
| 2026-05-07 00:05 | 51.86275 | -0.90038 | 20567 ft | 403 kts | 258° |
| 2026-05-07 00:05 | 51.85669 | -0.94478 | 20928 ft | 405 kts | 258° |
| 2026-05-07 00:06 | 51.84891 | -0.98862 | 21246 ft | 407 kts | 248° |
| 2026-05-07 00:06 | 51.83489 | -1.02855 | 21595 ft | 410 kts | 233° |
| 2026-05-07 00:06 | 51.81610 | -1.06353 | 21926 ft | 414 kts | 226° |
| 2026-05-07 00:06 | 51.79548 | -1.09636 | 22269 ft | 417 kts | 224° |
| 2026-05-07 00:07 | 51.77438 | -1.12875 | 22636 ft | 419 kts | 224° |
| 2026-05-07 00:07 | 51.75328 | -1.16143 | 23009 ft | 421 kts | 225° |
| 2026-05-07 00:07 | 51.73229 | -1.19455 | 23390 ft | 424 kts | 225° |
| 2026-05-07 00:07 | 51.71126 | -1.22825 | 23746 ft | 426 kts | 226° |
| 2026-05-07 00:08 | 51.69045 | -1.26232 | 24058 ft | 428 kts | 228° |
| 2026-05-07 00:08 | 51.67151 | -1.29850 | 24395 ft | 429 kts | 235° |
| 2026-05-07 00:08 | 51.65619 | -1.33972 | 24709 ft | 429 kts | 246° |
| 2026-05-07 00:08 | 51.64625 | -1.38494 | 25037 ft | 430 kts | 257° |
| 2026-05-07 00:09 | 51.64214 | -1.43264 | 25357 ft | 431 kts | 269° |
| 2026-05-07 00:09 | 51.64383 | -1.48092 | 25624 ft | 435 kts | 279° |
| 2026-05-07 00:09 | 51.65124 | -1.52806 | 25941 ft | 436 kts | 290° |
| 2026-05-07 00:09 | 51.66347 | -1.57297 | 26241 ft | 439 kts | 297° |
| 2026-05-07 00:10 | 51.67799 | -1.61633 | 26550 ft | 441 kts | 299° |
| 2026-05-07 00:10 | 51.69315 | -1.65952 | 26868 ft | 443 kts | 297° |
| 2026-05-07 00:10 | 51.70512 | -1.70532 | 27179 ft | 444 kts | 286° |
| 2026-05-07 00:10 | 51.71172 | -1.75400 | 27458 ft | 447 kts | 278° |
| 2026-05-07 00:11 | 51.71554 | -1.80390 | 27751 ft | 449 kts | 276° |
| 2026-05-07 00:11 | 51.71840 | -1.85419 | 28047 ft | 452 kts | 275° |
| 2026-05-07 00:11 | 51.72117 | -1.90481 | 28353 ft | 454 kts | 275° |
| 2026-05-07 00:11 | 51.72416 | -1.95564 | 28624 ft | 456 kts | 276° |
| 2026-05-07 00:12 | 51.72738 | -2.00606 | 28840 ft | 460 kts | 276° |
| 2026-05-07 00:12 | 51.73085 | -2.05751 | 29117 ft | 462 kts | 277° |
| 2026-05-07 00:12 | 51.73444 | -2.10919 | 29387 ft | 464 kts | 277° |
| 2026-05-07 00:12 | 51.73806 | -2.16103 | 29653 ft | 466 kts | 277° |
| 2026-05-07 00:13 | 51.74171 | -2.21315 | 29934 ft | 468 kts | 277° |
| 2026-05-07 00:13 | 51.74532 | -2.26523 | 30042 ft | 472 kts | 277° |
| 2026-05-07 00:13 | 51.75260 | -2.37140 | 30048 ft | 479 kts | 277° |
| 2026-05-07 00:14 | 51.75984 | -2.47882 | 30046 ft | 483 kts | 277° |
| 2026-05-07 00:14 | 51.76702 | -2.58688 | 30042 ft | 484 kts | 277° |
| 2026-05-07 00:15 | 51.77410 | -2.69506 | 30042 ft | 484 kts | 277° |
| 2026-05-07 00:15 | 51.78105 | -2.80272 | 30042 ft | 487 kts | 277° |
| 2026-05-07 00:16 | 51.78801 | -2.91192 | 30075 ft | 489 kts | 277° |
| 2026-05-07 00:16 | 51.79489 | -3.02177 | 30076 ft | 492 kts | 277° |
| 2026-05-07 00:17 | 51.80168 | -3.13176 | 30067 ft | 492 kts | 277° |
| 2026-05-07 00:17 | 51.80803 | -3.24182 | 30059 ft | 492 kts | 276° |
| 2026-05-07 00:18 | 51.81419 | -3.35201 | 30043 ft | 492 kts | 276° |
| 2026-05-07 00:18 | 51.82050 | -3.46151 | 30034 ft | 493 kts | 276° |
| 2026-05-07 00:19 | 51.82918 | -3.57127 | 30030 ft | 492 kts | 282° |
| 2026-05-07 00:19 | 51.84294 | -3.67961 | 30028 ft | 491 kts | 283° |
| 2026-05-07 00:20 | 51.85753 | -3.78776 | 30027 ft | 491 kts | 283° |
| 2026-05-07 00:20 | 51.87168 | -3.89606 | 30023 ft | 492 kts | 283° |
| 2026-05-07 00:21 | 51.88546 | -4.00440 | 30023 ft | 491 kts | 283° |
| 2026-05-07 00:21 | 51.89902 | -4.11218 | 30021 ft | 491 kts | 283° |
| 2026-05-07 00:22 | 51.91258 | -4.22079 | 30021 ft | 491 kts | 282° |
| 2026-05-07 00:22 | 51.92603 | -4.32931 | 30020 ft | 491 kts | 282° |
| 2026-05-07 00:23 | 51.93939 | -4.43788 | 30018 ft | 491 kts | 282° |
| 2026-05-07 00:23 | 51.95258 | -4.54604 | 30020 ft | 491 kts | 282° |
| 2026-05-07 00:24 | 51.96576 | -4.65493 | 30021 ft | 491 kts | 282° |
| 2026-05-07 00:24 | 51.97881 | -4.76371 | 30017 ft | 491 kts | 282° |
| 2026-05-07 00:25 | 51.99160 | -4.87258 | 30021 ft | 491 kts | 281° |
| 2026-05-07 00:25 | 52.00397 | -4.98175 | 30021 ft | 492 kts | 281° |
| 2026-05-07 00:26 | 52.02232 | -5.08760 | 30019 ft | 489 kts | 296° |
| 2026-05-07 00:26 | 52.05616 | -5.18326 | 30017 ft | 488 kts | 304° |
| 2026-05-07 00:27 | 52.09314 | -5.27588 | 30020 ft | 488 kts | 303° |
| 2026-05-07 00:27 | 52.12884 | -5.37001 | 30020 ft | 489 kts | 302° |
| 2026-05-07 00:28 | 52.16346 | -5.46475 | 30021 ft | 489 kts | 302° |
| 2026-05-07 00:28 | 52.19783 | -5.55984 | 30019 ft | 490 kts | 302° |
| 2026-05-07 00:29 | 52.23244 | -5.65584 | 30024 ft | 490 kts | 302° |
| 2026-05-07 00:30 | 52.28916 | -5.85834 | 30018 ft | 492 kts | 291° |
| 2026-05-07 00:30 | 52.31267 | -5.96338 | 30012 ft | 492 kts | 291° |
| 2026-05-07 00:31 | 52.33668 | -6.06835 | 30012 ft | 493 kts | 291° |
| 2026-05-07 00:31 | 52.36097 | -6.17332 | 30014 ft | 493 kts | 291° |
| 2026-05-07 00:32 | 52.38511 | -6.27778 | 30014 ft | 493 kts | 291° |
| 2026-05-07 00:32 | 52.40924 | -6.38281 | 30010 ft | 493 kts | 291° |
| 2026-05-07 00:33 | 52.43329 | -6.48804 | 30010 ft | 493 kts | 291° |
| 2026-05-07 00:33 | 52.45723 | -6.59340 | 30005 ft | 493 kts | 291° |
| 2026-05-07 00:34 | 52.48110 | -6.69894 | 30008 ft | 493 kts | 291° |
| 2026-05-07 00:34 | 52.50473 | -6.80396 | 30009 ft | 493 kts | 291° |
| 2026-05-07 00:35 | 52.52840 | -6.90964 | 30009 ft | 493 kts | 290° |
| 2026-05-07 00:35 | 52.55187 | -7.01565 | 30001 ft | 493 kts | 290° |
| 2026-05-07 00:36 | 52.57484 | -7.12164 | 30001 ft | 491 kts | 290° |
| 2026-05-07 00:36 | 52.59793 | -7.22742 | 30001 ft | 491 kts | 290° |
| 2026-05-07 00:37 | 52.62096 | -7.33250 | 29998 ft | 491 kts | 290° |
| 2026-05-07 00:37 | 52.64406 | -7.43824 | 29989 ft | 491 kts | 290° |
| 2026-05-07 00:38 | 52.66708 | -7.54420 | 29985 ft | 491 kts | 289° |
| 2026-05-07 00:38 | 52.69003 | -7.65046 | 29992 ft | 492 kts | 289° |
| 2026-05-07 00:39 | 52.71290 | -7.75688 | 29989 ft | 492 kts | 289° |
| 2026-05-07 00:39 | 52.73565 | -7.86331 | 29982 ft | 491 kts | 289° |
| 2026-05-07 00:40 | 52.75812 | -7.96892 | 29985 ft | 489 kts | 289° |
| 2026-05-07 00:40 | 52.78052 | -8.07485 | 29980 ft | 489 kts | 289° |
| 2026-05-07 00:41 | 52.80285 | -8.18094 | 29982 ft | 488 kts | 288° |
| 2026-05-07 00:41 | 52.82498 | -8.28698 | 29986 ft | 488 kts | 288° |
| 2026-05-07 00:42 | 52.84663 | -8.39345 | 29980 ft | 488 kts | 288° |
| 2026-05-07 00:42 | 52.86824 | -8.49919 | 29979 ft | 488 kts | 288° |
| 2026-05-07 00:43 | 52.89007 | -8.60541 | 29981 ft | 488 kts | 288° |
| 2026-05-07 00:43 | 52.91191 | -8.71192 | 29976 ft | 487 kts | 288° |
| 2026-05-07 00:44 | 52.93359 | -8.81823 | 29979 ft | 486 kts | 288° |
| 2026-05-07 00:44 | 52.95503 | -8.92394 | 29979 ft | 483 kts | 288° |
| 2026-05-07 00:45 | 52.97636 | -9.02973 | 29976 ft | 483 kts | 288° |
| 2026-05-07 00:45 | 52.99743 | -9.13482 | 29978 ft | 483 kts | 288° |
| 2026-05-07 00:46 | 53.01855 | -9.24064 | 29974 ft | 483 kts | 287° |
| 2026-05-07 00:46 | 53.03953 | -9.34644 | 29972 ft | 483 kts | 287° |
| 2026-05-07 00:47 | 53.06048 | -9.45260 | 29974 ft | 483 kts | 287° |
| 2026-05-07 00:47 | 53.08129 | -9.55866 | 29971 ft | 483 kts | 287° |
| 2026-05-07 00:48 | 53.10165 | -9.66511 | 29974 ft | 483 kts | 287° |
| 2026-05-07 00:48 | 53.12192 | -9.77167 | 29974 ft | 482 kts | 287° |
| 2026-05-07 00:49 | 53.14222 | -9.87739 | 29974 ft | 482 kts | 287° |
| 2026-05-07 00:49 | 53.16264 | -9.98378 | 29974 ft | 482 kts | 287° |
| 2026-05-07 00:50 | 53.18301 | -10.09041 | 29971 ft | 482 kts | 286° |
| 2026-05-07 00:50 | 53.19983 | -10.17901 | 29967 ft | 482 kts | 287° |
| 2026-05-07 00:51 | 53.22000 | -10.28580 | 29969 ft | 482 kts | 286° |
| 2026-05-07 00:51 | 53.24004 | -10.39249 | 29967 ft | 482 kts | 286° |
| 2026-05-07 00:52 | 53.26002 | -10.49950 | 29970 ft | 482 kts | 286° |
| 2026-05-07 00:52 | 53.27991 | -10.60658 | 29966 ft | 481 kts | 285° |
| 2026-05-07 00:53 | 53.29959 | -10.71317 | 29966 ft | 480 kts | 285° |
| 2026-05-07 00:53 | 53.31904 | -10.81916 | 29966 ft | 480 kts | 285° |
| 2026-05-07 00:54 | 53.33844 | -10.92604 | 29966 ft | 480 kts | 285° |
| 2026-05-07 00:54 | 53.35734 | -11.03318 | 29960 ft | 480 kts | 285° |
| 2026-05-07 00:55 | 53.37641 | -11.14042 | 29957 ft | 480 kts | 285° |
| 2026-05-07 00:55 | 53.39556 | -11.24741 | 29955 ft | 480 kts | 285° |
| 2026-05-07 00:56 | 53.41455 | -11.35388 | 29952 ft | 480 kts | 285° |
| 2026-05-07 00:56 | 53.43358 | -11.46122 | 29950 ft | 479 kts | 285° |
| 2026-05-07 00:57 | 53.45247 | -11.56842 | 30065 ft | 478 kts | 284° |
| 2026-05-07 00:57 | 53.46186 | -11.62196 | 30349 ft | 478 kts | 284° |
| 2026-05-07 00:57 | 53.47123 | -11.67557 | 30589 ft | 477 kts | 284° |
| 2026-05-07 00:58 | 53.48055 | -11.72903 | 30828 ft | 477 kts | 284° |
| 2026-05-07 00:58 | 53.48979 | -11.78219 | 31056 ft | 477 kts | 284° |
| 2026-05-07 00:58 | 53.49894 | -11.83499 | 31280 ft | 476 kts | 284° |
| 2026-05-07 00:58 | 53.50818 | -11.88850 | 31497 ft | 476 kts | 284° |
| 2026-05-07 00:59 | 53.52656 | -11.99537 | 31895 ft | 475 kts | 284° |
| 2026-05-07 00:59 | 53.53570 | -12.04878 | 31945 ft | 476 kts | 284° |
| 2026-05-07 01:00 | 53.55395 | -12.15584 | 31945 ft | 476 kts | 284° |
| 2026-05-07 01:00 | 53.57189 | -12.26234 | 31938 ft | 475 kts | 283° |
| 2026-05-07 01:01 | 53.58941 | -12.36960 | 31947 ft | 475 kts | 283° |
| 2026-05-07 01:01 | 53.60708 | -12.47686 | 31931 ft | 474 kts | 283° |
| 2026-05-07 01:02 | 53.62478 | -12.58356 | 31934 ft | 472 kts | 283° |
| 2026-05-07 01:02 | 53.64241 | -12.69023 | 31948 ft | 472 kts | 283° |
| 2026-05-07 01:03 | 53.65994 | -12.79694 | 31932 ft | 472 kts | 283° |
| 2026-05-07 01:03 | 53.67738 | -12.90382 | 31923 ft | 472 kts | 283° |
| 2026-05-07 01:04 | 53.69471 | -13.01069 | 31924 ft | 472 kts | 282° |
| 2026-05-07 01:04 | 53.71184 | -13.11704 | 31926 ft | 472 kts | 282° |
| 2026-05-07 01:05 | 53.72897 | -13.22399 | 31921 ft | 472 kts | 282° |
| 2026-05-07 01:05 | 53.74600 | -13.33106 | 31922 ft | 472 kts | 282° |
| 2026-05-07 01:06 | 53.76290 | -13.43796 | 31924 ft | 469 kts | 281° |
| 2026-05-07 01:06 | 53.77965 | -13.54457 | 31919 ft | 468 kts | 281° |
| 2026-05-07 01:07 | 53.79601 | -13.65125 | 31917 ft | 468 kts | 281° |
| 2026-05-07 01:07 | 53.81198 | -13.75741 | 31915 ft | 468 kts | 281° |
| 2026-05-07 01:08 | 53.82825 | -13.86425 | 31914 ft | 468 kts | 281° |
| 2026-05-07 01:08 | 53.84459 | -13.97111 | 31911 ft | 468 kts | 281° |
| 2026-05-07 01:09 | 53.86084 | -14.07794 | 31910 ft | 468 kts | 281° |
| 2026-05-07 01:09 | 53.87692 | -14.18435 | 31908 ft | 468 kts | 281° |
| 2026-05-07 01:10 | 53.89295 | -14.29123 | 31914 ft | 468 kts | 280° |
| 2026-05-07 01:10 | 53.90888 | -14.39810 | 31908 ft | 465 kts | 279° |
| 2026-05-07 01:11 | 53.92464 | -14.50457 | 31905 ft | 465 kts | 279° |
| 2026-05-07 01:11 | 53.94030 | -14.61119 | 31905 ft | 465 kts | 279° |
| 2026-05-07 01:12 | 53.95586 | -14.71774 | 31905 ft | 465 kts | 279° |
| 2026-05-07 01:12 | 53.97124 | -14.82381 | 31903 ft | 465 kts | 279° |
| 2026-05-07 01:13 | 53.98662 | -14.93063 | 31908 ft | 465 kts | 279° |
| 2026-05-07 01:13 | 53.99413 | -14.98381 | 32060 ft | 465 kts | 278° |
| 2026-05-07 01:13 | 54.00029 | -15.03769 | 32232 ft | 461 kts | 272° |
| 2026-05-07 01:13 | 54.00325 | -15.09179 | 32429 ft | 458 kts | 269° |
| 2026-05-07 01:14 | 54.00447 | -15.14591 | 32609 ft | 457 kts | 267° |
| 2026-05-07 01:14 | 54.00506 | -15.19994 | 32801 ft | 456 kts | 266° |
| 2026-05-07 01:14 | 54.00558 | -15.25319 | 32984 ft | 456 kts | 266° |
| 2026-05-07 01:14 | 54.00622 | -15.30719 | 33166 ft | 456 kts | 266° |
| 2026-05-07 01:15 | 54.00700 | -15.36107 | 33329 ft | 456 kts | 267° |
| 2026-05-07 01:15 | 54.00789 | -15.41492 | 33493 ft | 455 kts | 267° |
| 2026-05-07 01:15 | 54.00881 | -15.46866 | 33683 ft | 455 kts | 266° |
| 2026-05-07 01:15 | 54.00976 | -15.52241 | 33863 ft | 453 kts | 266° |
| 2026-05-07 01:16 | 54.01068 | -15.57593 | 33899 ft | 452 kts | 266° |